Time;durP1;ratioP1;P1;durP2;ratioP2;P2;SDS_P1;SDS_P2;PMS_P1;PMS_P2;Temp;Humidity;BMP_temperature;BMP_pressure;BME280_temperature;BME280_humidity;BME280_pressure;Samples;Min_cycle;Max_cycle;Signal;HPM_P1;HPM_P2
2021/08/07 00:00:41;;;;;;;19.77;14.25;;;;;;;19.27;100.00;98836.88;5110389;28;20050;-59
2021/08/07 00:03:06;;;;;;;20.27;15.05;;;;;;;19.25;100.00;98836.19;5111873;28;20092;-56
2021/08/07 00:05:32;;;;;;;21.45;15.25;;;;;;;19.24;100.00;98837.97;5110618;28;20130;-58
2021/08/07 00:07:58;;;;;;;19.40;15.55;;;;;;;19.23;100.00;98848.63;5092150;28;20070;-55
2021/08/07 00:10:24;;;;;;;19.90;15.95;;;;;;;19.22;100.00;98839.91;5110061;28;20039;-56
2021/08/07 00:12:52;;;;;;;20.85;16.05;;;;;;;19.24;100.00;98831.88;5111419;28;20088;-56
2021/08/07 00:15:18;;;;;;;19.23;16.10;;;;;;;19.25;100.00;98834.38;5109164;28;20044;-55
2021/08/07 00:17:44;;;;;;;20.50;15.13;;;;;;;19.25;100.00;98830.91;5110514;28;20203;-56
2021/08/07 00:20:10;;;;;;;22.90;17.50;;;;;;;19.24;100.00;98827.44;5109100;28;20039;-55
2021/08/07 00:22:36;;;;;;;25.17;17.45;;;;;;;19.23;100.00;98820.50;5093256;28;20071;-55
2021/08/07 00:25:03;;;;;;;23.05;17.35;;;;;;;19.09;100.00;98806.78;5113091;27;20043;-57
2021/08/07 00:27:29;;;;;;;24.05;17.67;;;;;;;19.25;100.00;98838.81;5090272;28;20035;-56
2021/08/07 00:29:55;;;;;;;25.42;17.98;;;;;;;19.24;100.00;98822.16;5107592;28;20052;-56
2021/08/07 00:32:21;;;;;;;26.80;17.23;;;;;;;19.17;100.00;98812.25;5109240;28;20043;-54
2021/08/07 00:34:47;;;;;;;22.17;16.92;;;;;;;19.17;100.00;98813.09;5092099;28;20067;-56
2021/08/07 00:37:14;;;;;;;24.15;17.80;;;;;;;19.25;100.00;98831.75;5109899;28;20086;-57
2021/08/07 00:39:51;;;;;;;23.30;18.20;;;;;;;19.24;100.00;98837.13;5090671;28;20035;-54
2021/08/07 00:42:17;;;;;;;24.88;18.67;;;;;;;19.11;100.00;98804.84;5091940;28;20039;-55
2021/08/07 00:44:43;;;;;;;25.58;18.50;;;;;;;19.25;100.00;98831.75;5075531;28;20043;-58
2021/08/07 00:47:12;;;;;;;25.08;18.67;;;;;;;19.26;100.00;98822.03;5074327;28;20422;-52
2021/08/07 00:49:40;;;;;;;24.55;18.70;;;;;;;19.26;100.00;98825.50;5105355;28;20122;-56
2021/08/07 00:52:09;;;;;;;23.20;17.75;;;;;;;19.28;100.00;98823.56;5064305;28;20051;-53
2021/08/07 00:54:41;;;;;;;;;;;;;;;19.27;100.00;98813.16;5085123;28;20430;-56
2021/08/07 00:57:11;;;;;;;25.45;17.95;;;;;;;19.26;100.00;98807.03;5085862;28;19963;-55
2021/08/07 00:59:39;;;;;;;23.52;17.75;;;;;;;19.28;100.00;98809.56;5091556;28;20043;-57
2021/08/07 01:02:10;;;;;;;26.95;18.95;;;;;;;19.29;100.00;98819.13;5091895;28;20554;-56
2021/08/07 01:04:48;;;;;;;24.40;18.33;;;;;;;19.30;100.00;98823.47;5056363;28;20044;-57
2021/08/07 01:07:31;;;;;;;29.17;20.27;;;;;;;19.29;100.00;98816.50;5071107;28;20399;-55
2021/08/07 01:10:19;;;;;;;25.90;20.08;;;;;;;19.31;100.00;98822.50;5073957;28;20135;-55
2021/08/07 01:13:10;;;;;;;28.67;21.40;;;;;;;19.30;100.00;98815.53;5073727;28;20050;-54
2021/08/07 01:15:44;;;;;;;27.55;21.48;;;;;;;19.32;100.00;98806.53;5071811;28;20511;-55
2021/08/07 01:18:14;;;;;;;27.55;21.13;;;;;;;19.25;100.00;98784.31;5072234;28;20051;-57
2021/08/07 01:20:49;;;;;;;25.95;20.35;;;;;;;19.32;100.00;98809.16;5056659;28;20507;-56
2021/08/07 01:23:55;;;;;;;28.05;20.30;;;;;;;19.34;100.00;98799.34;5078469;28;20047;-57
2021/08/07 01:26:33;;;;;;;29.65;20.23;;;;;;;19.35;100.00;98808.09;4990127;28;20054;-56
2021/08/07 01:29:14;;;;;;;28.42;20.67;;;;;;;19.36;100.00;98813.25;4992492;28;20050;-57
2021/08/07 01:31:47;;;;;;;27.00;21.30;;;;;;;19.37;100.00;98808.78;5048872;28;20131;-55
2021/08/07 01:34:18;;;;;;;26.02;20.33;;;;;;;19.39;100.00;98807.69;5089068;28;20047;-55
2021/08/07 01:36:46;;;;;;;;;;;;;;;19.41;100.00;98804.94;5090782;28;20056;-55
2021/08/07 01:39:20;;;;;;;28.30;21.25;;;;;;;19.41;100.00;98799.66;5053930;28;19924;-56
2021/08/07 01:41:49;;;;;;;25.52;20.60;;;;;;;19.41;100.00;98799.66;5070187;28;20036;-54
2021/08/07 01:44:20;;;;;;;26.15;20.85;;;;;;;19.42;100.00;98796.03;5070741;28;20047;-57
2021/08/07 01:47:05;;;;;;;25.95;20.50;;;;;;;19.43;100.00;98784.53;5070381;28;20214;-55
2021/08/07 01:49:46;;;;;;;27.60;19.92;;;;;;;19.44;100.00;98789.72;5052792;28;20113;-54
2021/08/07 01:52:23;;;;;;;27.23;20.00;;;;;;;19.41;100.00;98776.78;5053755;28;20054;-53
2021/08/07 01:55:07;;;;;;;;;;;;;;;19.48;100.00;98790.28;5073406;28;20331;-54
2021/08/07 01:57:41;;;;;;;31.55;21.42;;;;;;;19.49;100.00;98793.75;5070539;28;19920;-58
2021/08/07 02:00:12;;;;;;;30.00;21.98;;;;;;;19.49;100.00;98796.41;5052486;28;20427;-57
2021/08/07 02:02:40;;;;;;;28.60;21.65;;;;;;;19.50;100.00;98787.53;5088509;28;20629;-55
2021/08/07 02:05:10;;;;;;;30.05;20.88;;;;;;;19.51;100.00;98790.03;5070823;28;20645;-55
2021/08/07 02:07:38;;;;;;;31.85;21.75;;;;;;;19.51;100.00;98787.41;5069552;28;20051;-54
2021/08/07 02:10:06;;;;;;;32.63;23.17;;;;;;;19.52;100.00;98799.63;5069961;28;20578;-55
2021/08/07 02:12:35;;;;;;;34.70;22.00;;;;;;;19.54;100.00;98800.31;5054984;28;20052;-56
2021/08/07 02:15:12;;;;;;;41.45;25.50;;;;;;;19.45;100.00;98801.94;5068675;28;20419;-57
2021/08/07 02:17:42;;;;;;;36.15;22.20;;;;;;;19.57;100.00;98800.06;5070692;28;20044;-57
2021/08/07 02:20:09;;;;;;;30.80;21.52;;;;;;;19.57;100.00;98786.88;5068972;28;20040;-56
2021/08/07 02:22:35;;;;;;;28.65;21.40;;;;;;;19.57;100.00;98792.16;5070139;28;20151;-55
2021/08/07 02:25:01;;;;;;;29.27;21.17;;;;;;;19.57;100.00;98802.72;5089326;28;20044;-57
2021/08/07 02:27:40;;;;;;;26.35;19.52;;;;;;;19.57;100.00;98809.78;5050642;28;20074;-57
2021/08/07 02:30:08;;;;;;;35.67;23.23;;;;;;;19.58;100.00;98827.25;5052602;28;20105;-56
2021/08/07 02:32:41;;;;;;;29.05;19.95;;;;;;;19.49;100.00;98818.31;5064213;28;20040;-56
2021/08/07 02:35:10;;;;;;;34.67;22.83;;;;;;;19.62;100.00;98839.22;5068188;28;20036;-55
2021/08/07 02:37:37;;;;;;;38.47;24.35;;;;;;;19.64;100.00;98832.84;5057347;28;20105;-54
2021/08/07 02:40:06;;;;;;;27.52;18.88;;;;;;;19.69;100.00;98838.56;5057864;28;20373;-56
2021/08/07 02:42:35;;;;;;;30.60;21.33;;;;;;;19.71;100.00;98815.53;5074393;28;20217;-54
2021/08/07 02:45:03;;;;;;;31.08;20.55;;;;;;;19.72;100.00;98750.44;5092163;28;20047;-55
2021/08/07 02:47:33;;;;;;;30.42;21.67;;;;;;;19.52;100.00;98782.97;5056329;28;20097;-54
2021/08/07 02:50:04;;;;;;;28.13;20.60;;;;;;;19.62;100.00;98812.88;5056890;28;20046;-56
2021/08/07 02:52:33;;;;;;;27.80;21.08;;;;;;;19.54;100.00;98797.69;5074846;28;20043;-56
2021/08/07 02:55:03;;;;;;;36.97;23.80;;;;;;;19.52;100.00;98789.09;5074086;28;20490;-52
2021/08/07 02:57:30;;;;;;;35.75;23.40;;;;;;;19.51;100.00;98795.31;5085755;28;20050;-54
2021/08/07 02:59:58;;;;;;;32.90;22.33;;;;;;;19.39;100.00;98789.25;5056227;28;20067;-53
2021/08/07 03:02:25;;;;;;;32.00;22.17;;;;;;;19.37;100.00;98782.41;5072897;28;20105;-52
2021/08/07 03:04:52;;;;;;;34.78;23.35;;;;;;;19.47;100.00;98806.25;5072181;28;20047;-54
2021/08/07 03:07:21;;;;;;;36.83;21.80;;;;;;;19.47;100.00;98804.44;5073540;28;20048;-56
2021/08/07 03:09:47;;;;;;;32.20;22.67;;;;;;;19.47;100.00;98814.97;5073140;28;20047;-57
2021/08/07 03:12:15;;;;;;;31.60;21.42;;;;;;;19.47;100.00;98804.44;5073380;28;20051;-56
2021/08/07 03:14:43;;;;;;;28.23;21.92;;;;;;;19.48;100.00;98805.25;5071586;28;20044;-54
2021/08/07 03:17:09;;;;;;;36.92;25.80;;;;;;;19.47;100.00;98804.44;5071012;28;20101;-57
2021/08/07 03:19:40;;;;;;;27.05;21.88;;;;;;;19.47;100.00;98795.72;5072328;28;20159;-55
2021/08/07 03:22:06;;;;;;;34.92;25.73;;;;;;;19.45;100.00;98780.84;5072855;28;20127;-56
2021/08/07 03:24:35;;;;;;;33.42;23.65;;;;;;;19.44;100.00;98779.19;5072856;28;20154;-57
2021/08/07 03:27:03;;;;;;;33.00;22.85;;;;;;;19.44;100.00;98787.09;5056624;28;20052;-57
2021/08/07 03:29:29;;;;;;;31.33;22.75;;;;;;;19.45;100.00;98795.84;5064530;28;20109;-56
2021/08/07 03:32:02;;;;;;;29.70;23.40;;;;;;;19.49;100.00;98813.06;5048164;28;20075;-55
2021/08/07 03:34:36;;;;;;;30.42;22.98;;;;;;;19.51;100.00;98831.38;5087816;28;20047;-55
2021/08/07 03:37:02;;;;;;;36.20;23.95;;;;;;;19.51;100.00;98807.66;5072696;28;20146;-57
2021/08/07 03:39:31;;;;;;;;;;;;;;;19.51;100.00;98805.88;5072947;28;20130;-57
2021/08/07 03:41:57;;;;;;;28.90;22.55;;;;;;;19.51;100.00;98805.88;5070663;28;19930;-56
2021/08/07 03:44:23;;;;;;;31.08;23.15;;;;;;;19.54;100.00;98813.50;5072072;28;20036;-54
2021/08/07 03:46:51;;;;;;;29.75;21.23;;;;;;;19.39;100.00;98791.88;5072847;28;20515;-56
2021/08/07 03:49:18;;;;;;;29.50;21.98;;;;;;;19.56;100.00;98816.84;5070694;28;20495;-55
2021/08/07 03:51:46;;;;;;;29.77;22.57;;;;;;;19.58;100.00;98814.06;5060379;28;20048;-53
2021/08/07 03:54:14;;;;;;;24.63;20.63;;;;;;;19.58;100.00;98807.00;5053172;28;20045;-54
2021/08/07 03:56:40;;;;;;;26.67;21.08;;;;;;;19.59;100.00;98816.56;5055907;28;20039;-56
2021/08/07 03:59:07;;;;;;;28.70;20.88;;;;;;;19.59;100.00;98821.84;5057837;28;20127;-54
2021/08/07 04:01:34;;;;;;;27.02;18.92;;;;;;;19.58;100.00;98814.91;5071231;28;20048;-54
2021/08/07 04:04:06;;;;;;;26.83;20.58;;;;;;;19.61;100.00;98795.38;5073199;28;20044;-54
2021/08/07 04:06:38;;;;;;;28.75;20.58;;;;;;;19.61;100.00;98806.75;5071661;28;20069;-52
2021/08/07 04:09:06;;;;;;;26.45;20.88;;;;;;;19.62;100.00;98813.69;5071839;28;20040;-55
2021/08/07 04:11:33;;;;;;;26.23;20.83;;;;;;;19.62;100.00;98808.44;5072722;28;20051;-55
2021/08/07 04:14:03;;;;;;;28.45;20.70;;;;;;;19.64;100.00;98803.00;5051507;28;20076;-56
2021/08/07 04:16:29;;;;;;;26.90;19.42;;;;;;;19.64;100.00;98801.19;5072251;28;20044;-55
2021/08/07 04:19:00;;;;;;;23.73;18.92;;;;;;;19.68;100.00;98792.06;5064072;28;20043;-55
2021/08/07 04:21:26;;;;;;;27.58;20.13;;;;;;;19.61;100.00;98775.09;5071490;28;20145;-54
2021/08/07 04:23:52;;;;;;;26.45;19.25;;;;;;;19.78;100.00;98789.50;5056437;28;20057;-55
2021/08/07 04:26:19;;;;;;;21.15;17.48;;;;;;;19.84;100.00;98788.94;5053285;28;20197;-55
2021/08/07 04:28:45;;;;;;;21.08;17.63;;;;;;;19.90;100.00;98788.41;5072761;28;20602;-54
2021/08/07 04:31:12;;;;;;;24.70;18.05;;;;;;;19.98;100.00;98793.03;5071124;28;20115;-53
2021/08/07 04:33:38;;;;;;;25.55;17.77;;;;;;;20.13;100.00;98794.31;5071073;28;20131;-54
2021/08/07 04:36:05;;;;;;;22.15;17.42;;;;;;;20.22;100.00;98793.50;5038350;28;20525;-54
2021/08/07 04:38:32;;;;;;;23.27;17.70;;;;;;;20.38;100.00;98798.31;5071056;28;20075;-55
2021/08/07 04:40:58;;;;;;;19.45;17.35;;;;;;;20.47;100.00;98790.41;5071323;28;20130;-56
2021/08/07 04:43:34;;;;;;;23.65;17.73;;;;;;;20.56;100.00;98794.88;5072619;28;20086;-55
2021/08/07 04:46:01;;;;;;;22.58;17.95;;;;;;;20.61;100.00;98797.94;5071657;28;20044;-56
2021/08/07 04:48:27;;;;;;;21.58;16.92;;;;;;;20.62;100.00;98810.16;5069252;28;20090;-55
2021/08/07 04:51:09;;;;;;;20.30;16.77;;;;;;;20.58;100.00;98797.34;5070731;28;20044;-56
2021/08/07 04:53:39;;;;;;;22.23;16.90;;;;;;;20.73;100.00;98809.19;5072374;28;20073;-56
2021/08/07 04:56:11;;;;;;;20.05;17.17;;;;;;;20.82;100.00;98804.91;5068179;28;20044;-54
2021/08/07 04:58:37;;;;;;;18.67;16.50;;;;;;;20.98;100.00;98811.31;5068951;28;20035;-56
2021/08/07 05:01:03;;;;;;;19.70;16.38;;;;;;;21.04;100.00;98817.84;5085193;28;20040;-57
2021/08/07 05:03:29;;;;;;;20.88;16.58;;;;;;;21.02;100.00;98804.75;5052233;28;20051;-54
2021/08/07 05:05:57;;;;;;;22.20;16.77;;;;;;;21.08;100.00;98808.66;5051848;28;20137;-56
2021/08/07 05:08:23;;;;;;;20.05;16.27;;;;;;;21.13;100.00;98798.50;5070180;28;20058;-56
2021/08/07 05:10:50;;;;;;;18.48;16.58;;;;;;;21.32;99.88;98822.28;5070845;28;20046;-58
2021/08/07 05:13:16;;;;;;;21.45;17.20;;;;;;;21.46;99.12;98831.56;5053652;28;20039;-57
2021/08/07 05:15:42;;;;;;;19.80;16.02;;;;;;;21.49;97.96;98818.09;5071791;28;20446;-56
2021/08/07 05:18:08;;;;;;;19.15;16.55;;;;;;;21.43;98.38;98808.91;5068678;28;20043;-58
2021/08/07 05:20:35;;;;;;;20.92;17.05;;;;;;;21.52;97.80;98815.16;5070764;28;20878;-56
2021/08/07 05:23:01;;;;;;;20.90;16.65;;;;;;;21.71;95.83;98824.84;5071597;28;20530;-57
2021/08/07 05:25:27;;;;;;;21.23;16.40;;;;;;;21.83;94.51;98821.88;5070173;28;20050;-57
2021/08/07 05:27:53;;;;;;;24.35;16.42;;;;;;;21.89;93.55;98834.53;5068737;28;20040;-57
2021/08/07 05:30:21;;;;;;;19.08;16.38;;;;;;;22.02;93.18;98818.38;5070589;28;21984;-56
2021/08/07 05:32:50;;;;;;;21.33;15.93;;;;;;;22.03;92.35;98814.75;5070194;28;20538;-56
2021/08/07 05:35:16;;;;;;;21.58;16.77;;;;;;;21.98;92.65;98798.47;5069965;28;20044;-56
2021/08/07 05:37:43;;;;;;;19.85;16.35;;;;;;;22.02;92.52;98793.72;5067924;28;20063;-57
2021/08/07 05:40:14;;;;;;;22.38;15.73;;;;;;;22.10;91.86;98794.63;5063826;28;20062;-56
2021/08/07 05:42:45;;;;;;;20.23;16.27;;;;;;;22.15;91.32;98787.09;5064268;28;20036;-57
2021/08/07 05:45:12;;;;;;;20.27;15.75;;;;;;;22.30;90.81;98785.59;5063320;28;20092;-56
2021/08/07 05:47:38;;;;;;;20.05;15.90;;;;;;;22.37;90.57;98784.03;5064038;28;20048;-56
2021/08/07 05:50:07;;;;;;;20.80;14.70;;;;;;;22.52;89.19;98800.25;5065735;28;20108;-56
2021/08/07 05:52:33;;;;;;;17.13;14.80;;;;;;;22.55;87.85;98785.88;5049649;28;20105;-57
2021/08/07 05:55:02;;;;;;;19.27;15.68;;;;;;;22.65;87.59;98784.84;5077501;28;20080;-56
2021/08/07 05:57:29;;;;;;;18.08;15.55;;;;;;;22.74;86.96;98769.88;5071435;28;20059;-57
2021/08/07 05:59:56;;;;;;;18.63;16.30;;;;;;;22.83;86.27;98766.28;5070607;28;20530;-57
2021/08/07 06:02:22;;;;;;;23.33;15.35;;;;;;;22.96;86.04;98776.53;5070483;28;20055;-56
2021/08/07 06:04:51;;;;;;;20.65;14.70;;;;;;;23.01;85.18;98767.13;5053947;28;20426;-57
2021/08/07 06:07:17;;;;;;;19.52;13.60;;;;;;;23.31;82.55;98771.16;5069428;28;20461;-53
2021/08/07 06:09:44;;;;;;;14.63;13.07;;;;;;;23.56;80.62;98758.88;5074341;28;20043;-55
2021/08/07 06:12:11;;;;;;;21.60;14.93;;;;;;;23.88;79.44;98745.78;5074976;28;20112;-56
2021/08/07 06:14:37;;;;;;;18.55;13.57;;;;;;;24.19;77.86;98761.19;5075054;28;20574;-55
2021/08/07 06:17:03;;;;;;;15.27;12.30;;;;;;;24.47;75.59;98741.34;5074933;28;20040;-51
2021/08/07 06:19:29;;;;;;;17.63;12.25;;;;;;;24.70;74.25;98749.53;5074326;28;20051;-55
2021/08/07 06:21:56;;;;;;;15.05;12.32;;;;;;;24.72;73.51;98753.66;5074618;28;20475;-58
2021/08/07 06:24:22;;;;;;;17.10;12.70;;;;;;;24.59;73.24;98747.19;5081996;28;20274;-55
2021/08/07 06:26:48;;;;;;;16.95;12.60;;;;;;;24.64;72.72;98764.31;5097698;28;20040;-55
2021/08/07 06:29:14;;;;;;;15.88;11.60;;;;;;;24.67;72.52;98765.78;5078066;28;20047;-54
2021/08/07 06:31:39;;;;;;;16.63;11.38;;;;;;;24.45;72.74;98761.94;5074522;28;20135;-56
2021/08/07 06:34:07;;;;;;;20.65;12.50;;;;;;;24.19;72.78;98759.38;5074648;28;20086;-58
2021/08/07 06:36:34;;;;;;;26.30;16.80;;;;;;;24.11;73.40;98761.97;5074179;28;20048;-56
2021/08/07 06:39:02;;;;;;;61.22;20.15;;;;;;;24.16;74.24;98762.34;5073420;28;20048;-59
2021/08/07 06:41:30;;;;;;;18.02;13.20;;;;;;;24.39;74.11;98766.06;5076344;28;20146;-59
2021/08/07 06:44:05;;;;;;;21.00;12.75;;;;;;;24.47;72.50;98763.44;5054665;28;20040;-59
2021/08/07 06:46:33;;;;;;;15.63;11.73;;;;;;;24.35;72.57;98770.06;5086510;28;20039;-58
2021/08/07 06:48:59;;;;;;;16.55;11.73;;;;;;;24.37;72.83;98764.59;5057310;28;20055;-57
2021/08/07 06:51:25;;;;;;;13.27;11.15;;;;;;;24.48;71.25;98767.78;5072529;28;20123;-59
2021/08/07 06:53:51;;;;;;;19.20;11.27;;;;;;;24.77;70.44;98783.25;5092503;28;20467;-62
2021/08/07 06:56:18;;;;;;;17.98;11.98;;;;;;;25.12;68.72;98784.78;5074320;28;20043;-59
2021/08/07 06:58:44;;;;;;;14.45;11.25;;;;;;;25.34;67.37;98791.25;5092424;28;20089;-60
2021/08/07 07:01:11;;;;;;;17.73;11.38;;;;;;;25.85;65.83;98787.38;5073323;28;20423;-58
2021/08/07 07:03:39;;;;;;;15.10;10.00;;;;;;;25.94;65.58;98791.66;5071918;28;20537;-59
2021/08/07 07:06:05;;;;;;;17.10;10.63;;;;;;;25.64;65.63;98785.28;5068682;28;20039;-58
2021/08/07 07:08:32;;;;;;;15.25;10.88;;;;;;;25.34;66.96;98801.91;5097371;28;20044;-59
2021/08/07 07:10:58;;;;;;;18.13;11.20;;;;;;;25.29;67.19;98798.91;5058776;28;20051;-59
2021/08/07 07:13:25;;;;;;;21.50;11.30;;;;;;;25.28;67.06;98810.56;5088740;28;20043;-58
2021/08/07 07:15:51;;;;;;;17.85;10.80;;;;;;;25.15;65.80;98812.91;5081209;28;20044;-59
2021/08/07 07:18:17;;;;;;;19.63;11.10;;;;;;;25.04;66.33;98822.03;5071430;28;20044;-60
2021/08/07 07:20:43;;;;;;;15.90;10.30;;;;;;;24.96;66.77;98826.53;5053708;28;20032;-59
2021/08/07 07:23:09;;;;;;;34.67;11.88;;;;;;;24.84;67.53;98816.19;5072823;28;20135;-59
2021/08/07 07:25:37;;;;;;;16.83;10.23;;;;;;;24.74;67.75;98812.84;5067774;28;20039;-58
2021/08/07 07:28:04;;;;;;;26.25;13.25;;;;;;;24.67;67.82;98789.72;5091504;28;20457;-58
2021/08/07 07:30:30;;;;;;;18.70;10.88;;;;;;;24.77;67.62;98812.50;5091385;28;20036;-59
2021/08/07 07:32:57;;;;;;;17.90;10.93;;;;;;;24.79;67.96;98812.34;5072503;28;20641;-59
2021/08/07 07:35:23;;;;;;;22.27;11.02;;;;;;;24.95;67.38;98814.22;5091448;28;20569;-59
2021/08/07 07:37:50;;;;;;;25.42;10.40;;;;;;;24.94;67.11;98818.72;5072851;28;20072;-59
2021/08/07 07:40:17;;;;;;;17.70;11.30;;;;;;;24.83;67.54;98825.13;5072575;28;20040;-58
2021/08/07 07:42:46;;;;;;;;;;;;;;;24.67;67.90;98837.56;5073129;28;20058;-59
2021/08/07 07:45:12;;;;;;;16.67;10.63;;;;;;;24.54;68.38;98845.19;5067332;28;20444;-59
2021/08/07 07:47:41;;;;;;;16.08;10.00;;;;;;;24.49;68.78;98840.34;5064782;28;20508;-59
2021/08/07 07:50:12;;;;;;;21.92;11.57;;;;;;;24.58;68.69;98850.00;5064324;28;20527;-58
2021/08/07 07:52:39;;;;;;;14.38;10.00;;;;;;;24.63;68.54;98847.69;5072494;28;20570;-58
2021/08/07 07:55:06;;;;;;;17.92;10.90;;;;;;;24.71;68.08;98854.84;5070075;28;20079;-58
2021/08/07 07:57:37;;;;;;;20.15;10.82;;;;;;;24.78;67.19;98839.91;5073015;28;20112;-59
2021/08/07 08:00:05;;;;;;;16.08;10.43;;;;;;;24.96;66.63;98861.94;5080861;28;20044;-59
2021/08/07 08:02:34;;;;;;;15.45;10.50;;;;;;;24.92;66.97;98846.44;5090707;28;20048;-59
2021/08/07 08:05:00;;;;;;;13.30;10.77;;;;;;;25.11;66.68;98862.94;5072787;28;20040;-58
2021/08/07 08:07:26;;;;;;;22.83;10.27;;;;;;;25.30;66.18;98873.25;5090707;28;20042;-58
2021/08/07 08:09:51;;;;;;;19.48;10.05;;;;;;;25.41;65.90;98880.09;5090526;28;20048;-59
2021/08/07 08:12:18;;;;;;;16.73;10.02;;;;;;;25.33;65.44;98878.25;5072488;28;20047;-58
2021/08/07 08:14:49;;;;;;;18.25;9.93;;;;;;;25.36;65.53;98878.91;5073231;28;20036;-61
2021/08/07 08:17:15;;;;;;;16.58;9.27;;;;;;;25.53;64.66;98878.78;5054615;28;20495;-58
2021/08/07 08:19:41;;;;;;;17.73;8.57;;;;;;;25.76;63.23;98884.25;5067673;28;20119;-58
2021/08/07 08:22:07;;;;;;;16.77;8.10;;;;;;;26.25;61.65;98877.03;5054483;28;20129;-57
2021/08/07 08:24:34;;;;;;;14.35;8.38;;;;;;;27.18;58.84;98877.88;5068571;28;20062;-59
2021/08/07 08:26:59;;;;;;;12.85;7.30;;;;;;;27.67;56.94;98875.69;5064162;28;20500;-56
2021/08/07 08:29:25;;;;;;;16.70;8.23;;;;;;;28.84;54.51;98871.38;5071167;28;20040;-58
2021/08/07 08:31:52;;;;;;;14.57;7.45;;;;;;;30.39;50.12;98857.00;5065572;28;20176;-59
2021/08/07 08:34:17;;;;;;;15.45;6.40;;;;;;;31.10;47.82;98845.72;5089128;28;20283;-57
2021/08/07 08:36:43;;;;;;;17.65;7.10;;;;;;;30.84;48.02;98832.19;5071165;28;20121;-57
2021/08/07 08:39:09;;;;;;;11.20;7.03;;;;;;;30.85;47.18;98824.97;5064220;28;20040;-58
2021/08/07 08:41:36;;;;;;;18.38;7.88;;;;;;;31.03;47.33;98818.03;5069059;28;20044;-55
2021/08/07 08:44:03;;;;;;;18.95;7.25;;;;;;;32.07;44.32;98790.47;5070805;28;20133;-56
2021/08/07 08:46:30;;;;;;;21.33;8.38;;;;;;;32.77;42.66;98782.31;5070614;28;20540;-57
2021/08/07 08:48:57;;;;;;;15.20;7.55;;;;;;;32.68;42.35;98788.16;5060781;28;20040;-55
2021/08/07 08:51:26;;;;;;;14.93;7.22;;;;;;;33.12;41.69;98788.09;5043954;28;20105;-56
2021/08/07 08:53:53;;;;;;;19.05;8.38;;;;;;;34.10;39.87;98785.53;5048311;28;20075;-57
2021/08/07 08:56:19;;;;;;;20.27;8.27;;;;;;;34.55;39.69;98783.31;5083950;28;20119;-51
2021/08/07 08:58:45;;;;;;;20.75;9.32;;;;;;;33.89;40.87;98781.41;5065443;28;20048;-56
2021/08/07 09:01:12;;;;;;;18.17;9.48;;;;;;;33.11;42.47;98797.22;5069437;28;20032;-57
2021/08/07 09:03:40;;;;;;;15.07;6.90;;;;;;;32.57;41.76;98795.03;5067642;28;20157;-53
2021/08/07 09:06:11;;;;;;;13.73;6.60;;;;;;;32.59;41.89;98794.81;5090183;28;20047;-52
2021/08/07 09:08:37;;;;;;;17.85;7.18;;;;;;;33.58;39.88;98801.19;5072112;28;20131;-54
2021/08/07 09:11:19;;;;;;;12.57;6.38;;;;;;;32.88;40.55;98801.50;5071463;28;20040;-52
2021/08/07 09:13:51;;;;;;;13.63;7.47;;;;;;;31.85;41.55;98800.66;5071776;28;20427;-53
2021/08/07 09:16:17;;;;;;;15.15;6.82;;;;;;;31.14;43.43;98814.72;5071822;28;20498;-49
2021/08/07 09:18:43;;;;;;;19.00;6.93;;;;;;;31.32;43.64;98814.13;5071846;28;20141;-51
2021/08/07 09:21:14;;;;;;;9.05;6.70;;;;;;;32.52;41.42;98808.31;5070596;28;20032;-48
2021/08/07 09:23:43;;;;;;;10.52;6.30;;;;;;;34.07;38.64;98799.47;5070158;28;20043;-52
2021/08/07 09:26:14;;;;;;;11.00;5.80;;;;;;;34.93;36.23;98801.09;5071029;28;20044;-50
2021/08/07 09:28:55;;;;;;;16.15;6.03;;;;;;;34.53;37.47;98817.00;5089853;28;20473;-60
2021/08/07 09:31:25;;;;;;;11.95;5.68;;;;;;;34.71;36.59;98820.50;5071169;28;20044;-51
2021/08/07 09:34:19;;;;;;;14.63;6.43;;;;;;;34.94;36.27;98843.25;5071408;28;20086;-56
2021/08/07 09:36:50;;;;;;;11.40;6.13;;;;;;;34.11;37.03;98849.25;5071647;28;20143;-58
2021/08/07 09:39:34;;;;;;;8.50;5.80;;;;;;;34.04;36.88;98853.88;5053163;28;20044;-58
2021/08/07 09:42:01;;;;;;;13.50;7.10;;;;;;;34.12;36.97;98860.84;5070961;28;20036;-58
2021/08/07 09:44:35;;;;;;;10.02;5.57;;;;;;;34.27;36.43;98859.47;5056565;28;20055;-53
2021/08/07 09:47:13;;;;;;;11.00;6.20;;;;;;;34.11;37.42;98860.03;5068908;28;20044;-56
2021/08/07 19:59:38;;;;;;;20.77;13.23;;;;;;;21.86;100.00;98974.25;5099747;27;20400;-60
2021/08/07 20:02:05;;;;;;;22.17;12.25;;;;;;;22.03;100.00;98978.88;5107400;28;20423;-57
2021/08/07 20:04:31;;;;;;;18.60;12.18;;;;;;;22.06;100.00;98973.28;5106350;28;20462;-60
2021/08/07 20:06:57;;;;;;;23.40;12.75;;;;;;;22.28;100.00;98986.19;5106483;28;20081;-59
2021/08/07 20:09:23;;;;;;;26.20;11.80;;;;;;;22.39;99.38;98993.97;5105119;28;20028;-59
2021/08/07 20:11:51;;;;;;;20.05;11.40;;;;;;;22.47;95.92;98987.94;5106338;28;20040;-58
2021/08/07 20:14:17;;;;;;;22.40;11.77;;;;;;;22.52;93.94;98979.56;5107076;28;20040;-59
2021/08/07 20:16:43;;;;;;;23.73;12.20;;;;;;;22.71;92.47;99001.56;5105737;28;20031;-59
2021/08/07 20:19:09;;;;;;;18.33;11.25;;;;;;;22.78;90.56;98999.97;5106913;28;20050;-61
2021/08/07 20:21:34;;;;;;;22.08;11.63;;;;;;;22.84;89.32;98993.25;5107057;28;20059;-60
2021/08/07 20:24:00;;;;;;;18.05;10.60;;;;;;;22.91;85.91;98998.81;5102748;28;20051;-59
2021/08/07 20:26:26;;;;;;;24.13;10.68;;;;;;;22.98;85.59;99003.38;5106926;28;20040;-60
2021/08/07 20:28:52;;;;;;;21.20;10.73;;;;;;;23.03;84.51;99016.22;5106600;28;20032;-59
2021/08/07 20:31:18;;;;;;;19.17;10.10;;;;;;;23.08;83.03;99019.25;5107193;28;20096;-59
2021/08/07 20:33:44;;;;;;;23.00;10.95;;;;;;;23.11;82.18;99017.13;5112386;28;20062;-60
2021/08/07 20:36:10;;;;;;;17.10;10.35;;;;;;;23.16;80.74;99019.34;5107548;27;20063;-60
2021/08/07 20:38:35;;;;;;;28.67;10.63;;;;;;;23.19;80.39;99029.63;5106888;28;20040;-60
2021/08/07 20:41:01;;;;;;;16.15;10.00;;;;;;;23.20;78.97;99016.22;5107105;28;20099;-61
2021/08/07 20:43:28;;;;;;;23.15;10.43;;;;;;;23.26;78.78;99024.56;5107026;28;20097;-60
2021/08/07 20:45:54;;;;;;;22.80;11.95;;;;;;;23.25;78.90;99029.03;5106798;28;20044;-60
2021/08/07 20:48:20;;;;;;;23.90;11.25;;;;;;;23.27;78.92;99036.84;5086753;28;20043;-61
2021/08/07 20:50:47;;;;;;;25.65;11.90;;;;;;;23.27;78.56;99034.22;5101026;28;20039;-60
2021/08/07 20:53:13;;;;;;;19.02;11.70;;;;;;;23.26;78.71;99025.41;5105704;28;20042;-60
2021/08/07 20:55:39;;;;;;;16.17;10.90;;;;;;;23.25;78.81;99031.69;5106328;28;20039;-59
2021/08/07 20:58:05;;;;;;;17.48;10.93;;;;;;;23.05;78.81;99003.63;5104850;28;20087;-59
2021/08/07 21:00:31;;;;;;;22.70;11.40;;;;;;;23.20;78.63;99037.44;5102842;28;20126;-59
2021/08/07 21:02:57;;;;;;;17.95;11.23;;;;;;;23.21;78.23;99039.13;5086906;28;20131;-59
2021/08/07 21:05:23;;;;;;;22.50;12.13;;;;;;;23.21;78.01;99033.81;5088550;28;20040;-60
2021/08/07 21:07:50;;;;;;;16.08;10.73;;;;;;;23.20;77.88;99037.44;5088685;28;20131;-59
2021/08/07 21:10:16;;;;;;;18.70;11.10;;;;;;;23.20;77.97;99042.75;5078675;28;20044;-60
2021/08/07 21:12:42;;;;;;;24.55;11.30;;;;;;;23.21;77.61;99039.13;5074399;28;20055;-60
2021/08/07 21:15:09;;;;;;;22.45;11.55;;;;;;;23.23;77.50;99038.97;5074568;28;20052;-60
2021/08/07 21:17:35;;;;;;;19.48;11.05;;;;;;;23.22;77.25;99035.50;5081619;28;20070;-61
2021/08/07 21:20:00;;;;;;;18.33;10.70;;;;;;;23.15;76.65;99028.25;5086193;28;20515;-59
2021/08/07 21:22:26;;;;;;;23.17;11.00;;;;;;;23.23;76.29;99042.47;5089181;28;20040;-61
2021/08/07 21:24:52;;;;;;;23.52;11.13;;;;;;;23.21;76.35;99038.28;5074491;28;20048;-60
2021/08/07 21:27:18;;;;;;;18.33;10.43;;;;;;;23.22;75.70;99039.97;5084050;28;20046;-60
2021/08/07 21:29:44;;;;;;;19.73;10.65;;;;;;;23.25;74.84;99047.59;5087386;28;20051;-61
2021/08/07 21:32:15;;;;;;;16.63;10.38;;;;;;;23.26;74.57;99048.44;5085478;28;20090;-63